Temiscaming, Canada
Current Conditions -  °F | °C
As of 8:00 PM on Wednesday 22 Oct 2014 (Local Time) from CYYB Reporting Station
Clear Clear  
Wind Chill: 38°   Ceiling: Unl
Heat Index: 43°   Visibility: 15mi
Dew Point: 32°   Wind: 8mph
Humidity: 66%   Direction: 60°ENE
Pressure: 30.29"   Gusts: NA
Location:  46.72°N, 79.08°W
Report Text: CYYB 230000Z 06007KT 15SM SKC 06/M00 A3029 RMK SLP271
Loading
Personal Weather Stations






























Interactive Weather Map
Tropical Storm Tracking
New forecast layout! Learn more

10-Day Weather Forecast

Advertisements
Track Severe Weather on mobile